aviador You're here:

ZMUB Decoded Metar

ULAN BATOR in MONGOLIA
Report Time2018-04-27 03:00:00
UTC Time2018-04-27 03:04:52
Flight Rules vfr VFR
WindVRB at 4 kt
Visibility9999 m
Phenomena:N/A
Clouds:N/A
Expected CloudBase > 10,800 ft AGL from Temp-Dew spread
CeilingNone
Temp20°C (ISA +14)
Dew Point-7°C (16% RH)
AAT15.8°C
QNH1011 hPa
Density Alt6,063 ft
Elevation4,364 ft
Report Wrong Elevation
Raw Report
METAR ZMUB 270300Z VRB02MPS CAVOK 20/M07 Q1011 NOSIG RMK QFE651.5
15=####018001699####
SAEU KAWN 270300 RRB

Extra information for ZMUB:More info

Metar Taf Metar & Taf Last 4 Metars F.Rules Stats Wind Profile Meteogram Temp Stats Airport Information Weather charts Add Link Nearby VenuesMetar ALERT Operation Metar Decoded Social comments